createdAt,value
2022-08-16T00:00:40.512Z,18
2022-08-16T00:03:19.543Z,17.9
2022-08-16T00:06:17.688Z,17.9
2022-08-16T00:09:13.078Z,17.9
2022-08-16T00:12:20.004Z,17.8
2022-08-16T00:15:23.823Z,17.8
2022-08-16T00:18:17.094Z,17.8
2022-08-16T00:21:14.978Z,17.6
2022-08-16T00:24:39.238Z,17.6
2022-08-16T00:27:15.138Z,17.5
2022-08-16T00:30:44.046Z,17.5
2022-08-16T00:33:12.710Z,17.5
2022-08-16T00:36:15.865Z,17.5
2022-08-16T00:39:19.731Z,17.5
2022-08-16T00:42:32.407Z,17.5
2022-08-16T00:45:20.095Z,17.4
2022-08-16T00:48:54.038Z,17.4
2022-08-16T00:51:20.415Z,17.2
2022-08-16T00:54:16.161Z,17.2
2022-08-16T00:57:15.809Z,17.1
2022-08-16T01:00:23.765Z,17
2022-08-16T01:03:18.510Z,17
2022-08-16T01:09:15.662Z,16.9
2022-08-16T01:12:30.590Z,16.8
2022-08-16T01:15:14.975Z,16.8
2022-08-16T01:18:43.733Z,16.8
2022-08-16T01:21:12.277Z,16.6
2022-08-16T01:25:00.023Z,16.6
2022-08-16T01:27:17.395Z,16.6
2022-08-16T01:30:30.507Z,16.6
2022-08-16T01:33:38.188Z,16.5
2022-08-16T01:36:28.619Z,16.6
2022-08-16T01:39:20.166Z,16.5
2022-08-16T01:42:27.573Z,16.5
2022-08-16T01:45:13.113Z,16.5
2022-08-16T01:48:31.730Z,16.5
2022-08-16T01:51:30.075Z,16.4
2022-08-16T01:54:15.560Z,16.4
2022-08-16T01:57:16.221Z,16.4
2022-08-16T02:00:31.212Z,16.4
2022-08-16T02:03:26.531Z,16.4
2022-08-16T02:06:37.852Z,16.4
2022-08-16T02:09:20.175Z,16.4
2022-08-16T02:15:12.006Z,16.5
2022-08-16T02:18:23.138Z,16.6
2022-08-16T02:21:17.659Z,16.8
2022-08-16T02:24:51.602Z,16.8
2022-08-16T02:27:13.779Z,16.8
2022-08-16T02:30:52.910Z,16.8
2022-08-16T02:33:17.568Z,16.6
2022-08-16T02:36:57.271Z,16.6
2022-08-16T02:39:11.889Z,16.5
2022-08-16T02:42:14.495Z,16.5
2022-08-16T02:45:14.708Z,16.5
2022-08-16T02:48:54.910Z,16.4
2022-08-16T02:51:25.679Z,16.4
2022-08-16T02:54:12.752Z,16.4
2022-08-16T02:57:14.888Z,16.3
2022-08-16T03:00:55.765Z,16.3
2022-08-16T03:03:23.666Z,16.1
2022-08-16T03:06:50.440Z,16.1
2022-08-16T03:09:18.695Z,16.1
2022-08-16T03:12:20.793Z,16
2022-08-16T03:15:14.082Z,16
2022-08-16T03:18:46.795Z,15.9
2022-08-16T03:21:15.564Z,15.9
2022-08-16T03:24:33.920Z,15.8
2022-08-16T03:27:16.176Z,15.8
2022-08-16T03:30:26.302Z,15.8
2022-08-16T03:33:12.423Z,15.8
2022-08-16T03:36:47.609Z,15.6
2022-08-16T03:39:27.333Z,15.6
2022-08-16T03:42:25.412Z,15.6
2022-08-16T03:45:19.415Z,15.8
2022-08-16T03:48:39.923Z,15.6
2022-08-16T03:51:16.715Z,15.6
2022-08-16T03:54:22.468Z,15.8
2022-08-16T03:57:21.070Z,15.8
2022-08-16T04:00:43.482Z,15.9
2022-08-16T04:03:20.779Z,16
2022-08-16T04:06:17.985Z,16.1
2022-08-16T04:09:20.490Z,16.1
2022-08-16T04:15:21.457Z,16.4
2022-08-16T04:18:14.044Z,16.5
2022-08-16T04:21:12.540Z,16.5
2022-08-16T04:24:17.360Z,16.6
2022-08-16T04:27:19.452Z,16.6
2022-08-16T04:30:50.408Z,16.8
2022-08-16T04:33:13.190Z,16.8
2022-08-16T04:36:26.765Z,16.9
2022-08-16T04:39:20.015Z,17
2022-08-16T04:42:29.762Z,17.1
2022-08-16T04:45:14.488Z,17.2
2022-08-16T04:48:28.660Z,17.4
2022-08-16T04:51:18.804Z,17.5
2022-08-16T04:54:12.988Z,17.6
2022-08-16T04:57:16.974Z,17.8
2022-08-16T05:00:47.678Z,17.9
2022-08-16T05:03:21.764Z,18
2022-08-16T05:06:45.674Z,18.1
2022-08-16T05:09:16.265Z,18.4
2022-08-16T05:12:30.563Z,18.5
2022-08-16T05:15:17.394Z,18.5
2022-08-16T05:18:32.035Z,18.6
2022-08-16T05:21:26.946Z,18.8
2022-08-16T05:24:26.820Z,18.9
2022-08-16T05:27:22.345Z,19.1
2022-08-16T05:30:54.674Z,19.4
2022-08-16T05:33:22.799Z,20
2022-08-16T05:36:46.199Z,20.8
2022-08-16T05:39:14.157Z,23.3
2022-08-16T05:42:14.913Z,25.3
2022-08-16T05:45:23.986Z,26.8
2022-08-16T05:48:20.444Z,28.1
2022-08-16T05:51:45.781Z,29.5
2022-08-16T05:54:16.423Z,30.6
2022-08-16T05:57:17.610Z,31.6
2022-08-16T06:00:29.016Z,32.6
2022-08-16T06:03:20.066Z,33.6
2022-08-16T06:06:30.081Z,34.5
2022-08-16T06:09:20.309Z,35.5
2022-08-16T06:12:34.068Z,36.4
2022-08-16T06:15:21.952Z,37.1
2022-08-16T06:18:12.428Z,37.5
2022-08-16T06:21:25.272Z,38.2
2022-08-16T06:27:15.236Z,39.7
2022-08-16T06:30:22.094Z,40.2
2022-08-16T06:33:24.926Z,40.9
2022-08-16T06:36:16.342Z,41.6
2022-08-16T06:39:18.189Z,42.4
2022-08-16T06:42:13.884Z,43
2022-08-16T06:45:12.462Z,43.7
2022-08-16T06:48:13.068Z,44.5
2022-08-16T06:51:12.272Z,45.2
2022-08-16T06:54:20.464Z,45.8
2022-08-16T06:57:20.908Z,46.2
2022-08-16T07:00:32.474Z,46.5
2022-08-16T07:06:16.792Z,46.9
2022-08-16T07:09:23.618Z,47
2022-08-16T07:12:19.673Z,47.4
2022-08-16T07:15:30.757Z,47.4
2022-08-16T07:18:14.084Z,47.6
2022-08-16T07:21:15.861Z,47.7
2022-08-16T07:24:47.968Z,47.7
2022-08-16T07:27:16.884Z,48
2022-08-16T07:30:51.464Z,48.3
2022-08-16T07:33:51.582Z,48.6
2022-08-16T07:36:14.101Z,49
2022-08-16T07:39:12.952Z,49.2
2022-08-16T07:42:39.740Z,49.5
2022-08-16T07:45:17.056Z,49.7
2022-08-16T07:48:24.334Z,49.9
2022-08-16T07:51:20.271Z,50.1
2022-08-16T07:54:53.224Z,50.2
2022-08-16T07:57:21.087Z,50.4
2022-08-16T08:00:33.044Z,50.4
2022-08-16T08:03:19.301Z,50.5
2022-08-16T08:06:17.418Z,50.6
2022-08-16T08:09:12.524Z,50.6
2022-08-16T08:12:45.868Z,50.9
2022-08-16T08:15:28.717Z,51.1
2022-08-16T08:18:55.779Z,51.4
2022-08-16T08:21:12.606Z,51.6
2022-08-16T08:24:22.029Z,51.7
2022-08-16T08:27:13.613Z,52.1
2022-08-16T08:33:17.917Z,53
2022-08-16T08:36:23.904Z,53.3
2022-08-16T08:39:25.388Z,53.6
2022-08-16T08:42:15.163Z,54
2022-08-16T08:45:52.448Z,54.4
2022-08-16T08:48:45.966Z,54.4
2022-08-16T08:51:15.775Z,54.4
2022-08-16T08:54:20.856Z,54.5
2022-08-16T08:57:15.331Z,54.6
2022-08-16T09:00:29.975Z,54.7
2022-08-16T09:03:20.725Z,54.9
2022-08-16T09:06:20.578Z,55
2022-08-16T09:09:19.034Z,54.9
2022-08-16T09:12:53.151Z,54.7
2022-08-16T09:15:15.579Z,54.1
2022-08-16T09:18:44.144Z,53
2022-08-16T09:21:13.938Z,53.7
2022-08-16T09:27:13.696Z,54.2
2022-08-16T09:30:54.861Z,54.6
2022-08-16T09:33:15.873Z,54.9
2022-08-16T09:36:37.408Z,55.1
2022-08-16T09:39:20.582Z,54.1
2022-08-16T09:42:21.228Z,54.4
2022-08-16T09:45:33.428Z,54.4
2022-08-16T09:48:44.593Z,54.7
2022-08-16T09:51:14.904Z,54.9
2022-08-16T09:54:20.981Z,55.2
2022-08-16T09:57:17.332Z,55.6
2022-08-16T10:00:52.154Z,56
2022-08-16T10:03:16.870Z,55.9
2022-08-16T10:06:19.813Z,56.2
2022-08-16T10:09:21.019Z,56.9
2022-08-16T10:12:42.366Z,57.4
2022-08-16T10:15:20.993Z,57.6
2022-08-16T10:21:16.726Z,58.6
2022-08-16T10:24:11.808Z,59.1
2022-08-16T10:30:59.404Z,51.1
2022-08-16T10:33:15.411Z,47.5
2022-08-16T10:36:43.754Z,44.6
2022-08-16T10:39:15.088Z,42.6
2022-08-16T10:42:15.320Z,42.2
2022-08-16T10:45:14.571Z,40.9
2022-08-16T10:48:41.231Z,40.2
2022-08-16T10:51:13.990Z,40.8
2022-08-16T10:57:35.108Z,49.9
2022-08-16T11:00:27.400Z,51.5
2022-08-16T11:03:59.096Z,51.2
2022-08-16T11:06:30.870Z,54.7
2022-08-16T11:09:55.372Z,56.9
2022-08-16T11:12:30.978Z,58.6
2022-08-16T11:15:31.355Z,60
2022-08-16T11:21:31.496Z,61.6
2022-08-16T11:27:52.038Z,58.9
2022-08-16T11:30:41.453Z,59.7
2022-08-16T11:33:15.004Z,60.5
2022-08-16T11:36:39.688Z,61
2022-08-16T11:39:18.298Z,61.2
2022-08-16T11:42:44.849Z,56.2
2022-08-16T11:45:14.030Z,54.4
2022-08-16T11:48:11.437Z,53.7
2022-08-16T11:51:11.431Z,54.5
2022-08-16T11:54:40.955Z,49.4
2022-08-16T11:57:16.863Z,46
2022-08-16T12:00:53.404Z,50
2022-08-16T12:03:16.679Z,53.3
2022-08-16T12:06:33.760Z,55.6
2022-08-16T12:09:17.326Z,57.5
2022-08-16T12:12:20.731Z,59.1
2022-08-16T12:15:12.692Z,56.1
2022-08-16T12:18:22.898Z,57.7
2022-08-16T12:21:21.722Z,58.4
2022-08-16T12:24:15.643Z,58
2022-08-16T12:27:14.765Z,59.1
2022-08-16T12:30:40.944Z,60
2022-08-16T12:33:15.622Z,60.2
2022-08-16T12:36:17.596Z,59.9
2022-08-16T12:39:14.420Z,56.7
2022-08-16T12:42:12.375Z,51.4
2022-08-16T12:45:12.759Z,47.9
2022-08-16T12:48:51.089Z,45.9
2022-08-16T12:51:57.858Z,45.6
2022-08-16T12:54:12.083Z,51
2022-08-16T12:57:23.487Z,53.9
2022-08-16T13:00:11.758Z,55.9
2022-08-16T13:03:14.354Z,56.9
2022-08-16T13:06:14.662Z,54.1
2022-08-16T13:09:17.081Z,53
2022-08-16T13:12:14.063Z,54.7
2022-08-16T13:15:17.205Z,55.6
2022-08-16T13:18:41.172Z,55.8
2022-08-16T13:21:12.775Z,56.5
2022-08-16T13:24:19.089Z,57.1
2022-08-16T13:27:15.965Z,54.6
2022-08-16T13:30:46.920Z,55.8
2022-08-16T13:33:32.475Z,56.1
2022-08-16T13:36:48.274Z,54.7
2022-08-16T13:39:12.997Z,54
2022-08-16T13:42:13.126Z,51.4
2022-08-16T13:45:22.416Z,50.4
2022-08-16T13:48:37.271Z,47.7
2022-08-16T13:51:23.605Z,47.7
2022-08-16T13:57:15.861Z,52.9
2022-08-16T14:00:21.658Z,54.1
2022-08-16T14:03:20.379Z,54.7
2022-08-16T14:06:18.575Z,55.1
2022-08-16T14:09:24.314Z,55.4
2022-08-16T14:12:28.248Z,55.2
2022-08-16T14:15:13.809Z,55.2
2022-08-16T14:18:44.551Z,55.4
2022-08-16T14:21:16.011Z,55.4
2022-08-16T14:24:36.539Z,55.4
2022-08-16T14:27:17.555Z,55.5
2022-08-16T14:30:17.418Z,55.5
2022-08-16T14:33:15.093Z,55.4
2022-08-16T14:36:12.026Z,55.4
2022-08-16T14:39:13.311Z,55.2
2022-08-16T14:42:15.762Z,55.4
2022-08-16T14:45:11.799Z,55.5
2022-08-16T14:48:12.943Z,55.6
2022-08-16T14:51:15.079Z,55.8
2022-08-16T14:54:19.583Z,55.8
2022-08-16T14:57:12.533Z,53.1
2022-08-16T15:00:22.513Z,54
2022-08-16T15:03:16.470Z,54.4
2022-08-16T15:06:18.556Z,54.4
2022-08-16T15:09:18.927Z,54.2
2022-08-16T15:12:38.304Z,51.2
2022-08-16T15:15:23.177Z,47.2
2022-08-16T15:18:31.654Z,44.5
2022-08-16T15:21:14.781Z,47.4
2022-08-16T15:24:26.998Z,45.8
2022-08-16T15:27:15.680Z,44.7
2022-08-16T15:33:11.977Z,41.2
2022-08-16T15:36:16.853Z,40.1
2022-08-16T15:42:31.094Z,43.5
2022-08-16T15:45:21.000Z,45.8
2022-08-16T15:48:19.366Z,47.2
2022-08-16T15:51:14.689Z,48.3
2022-08-16T15:55:00.051Z,49.4
2022-08-16T15:57:24.320Z,50.1
2022-08-16T16:00:31.095Z,50.5
2022-08-16T16:03:15.860Z,50.9
2022-08-16T16:06:18.921Z,50.9
2022-08-16T16:09:14.619Z,50.6
2022-08-16T16:12:59.129Z,49.1
2022-08-16T16:15:13.691Z,44.9
2022-08-16T16:18:21.140Z,42.1
2022-08-16T16:21:11.896Z,39.9
2022-08-16T16:24:45.276Z,38.1
2022-08-16T16:27:12.485Z,36.9
2022-08-16T16:30:57.154Z,36
2022-08-16T16:33:15.479Z,37.2
2022-08-16T16:36:13.436Z,39.6
2022-08-16T16:39:14.441Z,40.6
2022-08-16T16:42:34.212Z,38.7
2022-08-16T16:45:17.071Z,37.2
2022-08-16T16:48:37.584Z,38.9
2022-08-16T16:51:19.555Z,40.1
2022-08-16T16:54:22.368Z,41
2022-08-16T16:57:12.351Z,41.1
2022-08-16T17:00:56.482Z,41.9
2022-08-16T17:03:22.845Z,42.1
2022-08-16T17:06:21.162Z,41.9
2022-08-16T17:09:15.441Z,41.5
2022-08-16T17:13:05.207Z,41.1
2022-08-16T17:15:17.090Z,40.5
2022-08-16T17:21:13.194Z,37.5
2022-08-16T17:24:50.453Z,35.7
2022-08-16T17:27:33.353Z,34.6
2022-08-16T17:30:44.849Z,33.7
2022-08-16T17:33:14.639Z,32.9
2022-08-16T17:36:54.846Z,32.2
2022-08-16T17:39:14.451Z,31.6
2022-08-16T17:42:11.436Z,31.1
2022-08-16T17:45:11.465Z,30.8
2022-08-16T17:48:11.951Z,30.4
2022-08-16T17:51:11.401Z,30
2022-08-16T17:54:29.978Z,29.8
2022-08-16T17:57:12.999Z,29.4
2022-08-16T18:00:11.466Z,29.1
2022-08-16T18:03:11.659Z,28.7
2022-08-16T18:06:11.387Z,28.5
2022-08-16T18:09:19.180Z,28.1
2022-08-16T18:12:57.671Z,27.8
2022-08-16T18:15:11.454Z,27.5
2022-08-16T18:18:11.463Z,27.1
2022-08-16T18:21:11.396Z,26.8
2022-08-16T18:24:11.472Z,26.5
2022-08-16T18:27:37.959Z,26.2
2022-08-16T18:30:11.483Z,26
2022-08-16T18:33:11.473Z,25.8
2022-08-16T18:36:26.902Z,25.5
2022-08-16T18:39:11.461Z,25.3
2022-08-16T18:42:11.467Z,25
2022-08-16T18:45:11.399Z,24.7
2022-08-16T18:48:11.425Z,24.5
2022-08-16T18:51:32.007Z,24.3
2022-08-16T18:54:11.397Z,24.1
2022-08-16T18:57:18.713Z,23.9
2022-08-16T19:00:11.483Z,23.6
2022-08-16T19:03:13.337Z,23.5
2022-08-16T19:06:15.872Z,23.3
2022-08-16T19:09:11.308Z,23.1
2022-08-16T19:12:11.417Z,23
2022-08-16T19:15:17.952Z,22.9
2022-08-16T19:18:11.367Z,22.8
2022-08-16T19:21:11.359Z,22.6
2022-08-16T19:24:24.123Z,22.4
2022-08-16T19:27:14.703Z,22.2
2022-08-16T19:30:11.361Z,22
2022-08-16T19:33:17.529Z,21.9
2022-08-16T19:36:35.602Z,21.6
2022-08-16T19:39:17.295Z,21.5
2022-08-16T19:42:11.357Z,21.4
2022-08-16T19:45:11.310Z,21.4
2022-08-16T19:48:11.359Z,21.2
2022-08-16T19:51:11.382Z,21.1
2022-08-16T19:54:11.479Z,21
2022-08-16T19:57:11.339Z,20.9
2022-08-16T20:00:22.802Z,20.8
2022-08-16T20:03:11.762Z,20.6
2022-08-16T20:06:39.674Z,20.5
2022-08-16T20:09:16.820Z,20.4
2022-08-16T20:12:11.388Z,20.3
2022-08-16T20:15:11.385Z,20.1
2022-08-16T20:18:31.255Z,20
2022-08-16T20:21:11.350Z,20
2022-08-16T20:24:45.416Z,19.9
2022-08-16T20:27:11.399Z,19.8
2022-08-16T20:30:15.458Z,19.6
2022-08-16T20:33:11.505Z,19.5
2022-08-16T20:36:18.799Z,19.5
2022-08-16T20:39:11.331Z,19.4
2022-08-16T20:42:11.330Z,19.3
2022-08-16T20:45:12.797Z,19.3
2022-08-16T20:48:11.314Z,19.1
2022-08-16T20:51:11.449Z,19.1
2022-08-16T20:54:16.820Z,19
2022-08-16T20:57:11.382Z,19
2022-08-16T21:00:11.510Z,19
2022-08-16T21:03:11.388Z,18.9
2022-08-16T21:06:11.337Z,18.9
2022-08-16T21:09:13.397Z,18.8
2022-08-16T21:12:17.928Z,18.8
2022-08-16T21:15:11.320Z,18.8
2022-08-16T21:18:11.367Z,18.6
2022-08-16T21:21:11.339Z,18.6
2022-08-16T21:24:11.419Z,18.5
2022-08-16T21:27:15.779Z,18.4
2022-08-16T21:30:18.373Z,18.3
2022-08-16T21:33:11.318Z,18.3
2022-08-16T21:36:11.408Z,18.1
2022-08-16T21:39:11.389Z,18
2022-08-16T21:42:11.381Z,18
2022-08-16T21:45:11.350Z,17.9
2022-08-16T21:48:12.173Z,17.8
2022-08-16T21:51:11.323Z,17.8
2022-08-16T21:54:11.552Z,17.8
2022-08-16T21:57:17.290Z,17.6
2022-08-16T22:00:13.897Z,17.6
2022-08-16T22:03:11.326Z,17.6
2022-08-16T22:06:25.528Z,17.6
2022-08-16T22:09:11.326Z,17.6
2022-08-16T22:12:11.322Z,17.5
2022-08-16T22:15:11.729Z,17.5
2022-08-16T22:18:11.359Z,17.4
2022-08-16T22:21:11.366Z,17.4
2022-08-16T22:24:11.439Z,17.4
2022-08-16T22:27:11.365Z,17.2
2022-08-16T22:30:16.026Z,17.1
2022-08-16T22:33:11.313Z,17.1
2022-08-16T22:36:11.330Z,17
2022-08-16T22:39:11.394Z,17
2022-08-16T22:42:11.333Z,16.9
2022-08-16T22:45:11.506Z,16.9
2022-08-16T22:48:11.424Z,16.8
2022-08-16T22:51:11.364Z,16.8
2022-08-16T22:54:57.621Z,16.6
2022-08-16T22:57:12.094Z,16.6
2022-08-16T23:00:11.358Z,16.5
2022-08-16T23:03:11.328Z,16.5
2022-08-16T23:06:11.475Z,16.4
2022-08-16T23:09:11.300Z,16.4
2022-08-16T23:12:11.324Z,16.3
2022-08-16T23:15:18.079Z,16.1
2022-08-16T23:18:11.352Z,16.1
2022-08-16T23:21:11.367Z,16.1
2022-08-16T23:24:11.375Z,16
2022-08-16T23:27:11.341Z,16
2022-08-16T23:30:11.368Z,16
2022-08-16T23:33:11.344Z,16
2022-08-16T23:36:11.366Z,16
2022-08-16T23:39:11.312Z,16
2022-08-16T23:42:11.327Z,16
2022-08-16T23:45:11.360Z,16
2022-08-16T23:48:11.340Z,15.9
2022-08-16T23:51:12.826Z,15.9
2022-08-16T23:54:11.322Z,15.9
2022-08-16T23:57:11.545Z,15.9
